createdAt,value
2018-05-23T00:00:21.384Z,96.03
2018-05-23T00:01:30.301Z,96.22
2018-05-23T00:02:38.951Z,96.32
2018-05-23T00:03:47.598Z,96.51
2018-05-23T00:04:56.241Z,95.94
2018-05-23T00:06:04.893Z,96.32
2018-05-23T00:07:13.539Z,96.42
2018-05-23T00:08:22.187Z,96.32
2018-05-23T00:09:30.828Z,96.99
2018-05-23T00:10:39.480Z,96.89
2018-05-23T00:11:48.387Z,96.22
2018-05-23T00:12:57.037Z,96.42
2018-05-23T00:14:05.685Z,96.32
2018-05-23T00:15:14.595Z,95.84
2018-05-23T00:16:23.243Z,96.13
2018-05-23T00:17:31.887Z,96.22
2018-05-23T00:18:40.539Z,95.75
2018-05-23T00:19:49.452Z,96.22
2018-05-23T00:20:58.096Z,95.26
2018-05-23T00:22:06.742Z,95.56
2018-05-23T00:23:15.395Z,95.75
2018-05-23T00:24:24.301Z,95.65
2018-05-23T00:25:32.951Z,95.26
2018-05-23T00:26:41.598Z,94.98
2018-05-23T00:27:50.599Z,95.36
2018-05-23T00:28:59.243Z,95.84
2018-05-23T00:30:08.158Z,95.56
2018-05-23T00:31:16.804Z,95.65
2018-05-23T00:32:25.447Z,95.65
2018-05-23T00:33:34.368Z,95.65
2018-05-23T00:34:43.015Z,96.03
2018-05-23T00:35:51.661Z,96.89
2018-05-23T00:37:00.309Z,96.89
2018-05-23T00:38:08.959Z,97.18
2018-05-23T00:39:17.608Z,97.47
2018-05-23T00:40:26.264Z,97.56
2018-05-23T00:41:35.161Z,97.56
2018-05-23T00:42:43.811Z,97.66
2018-05-23T00:43:52.719Z,98.24
2018-05-23T00:45:01.375Z,97.95
2018-05-23T00:46:10.282Z,97.52
2018-05-23T00:47:18.932Z,97.04
2018-05-23T00:48:27.579Z,97.56
2018-05-23T00:49:36.232Z,97.28
2018-05-23T00:50:44.878Z,97.04
2018-05-23T00:51:53.520Z,97.42
2018-05-23T00:53:02.167Z,97.33
2018-05-23T00:54:10.815Z,97.33
2018-05-23T00:55:19.465Z,97.42
2018-05-23T00:56:28.115Z,97.33
2018-05-23T00:57:36.768Z,97.23
2018-05-23T00:58:45.675Z,97.33
2018-05-23T00:59:54.599Z,97.52
2018-05-23T01:01:03.237Z,96.84
2018-05-23T01:02:11.885Z,96.84
2018-05-23T01:03:20.531Z,97.33
2018-05-23T01:04:29.460Z,97.52
2018-05-23T01:05:38.106Z,97.23
2018-05-23T01:06:46.754Z,97.52
2018-05-23T01:07:55.398Z,97.14
2018-05-23T01:09:04.045Z,97.42
2018-05-23T01:10:12.699Z,97.52
2018-05-23T01:11:21.607Z,97.42
2018-05-23T01:12:30.263Z,97.76
2018-05-23T01:13:39.167Z,96.84
2018-05-23T01:14:47.830Z,97.61
2018-05-23T01:15:56.470Z,97.33
2018-05-23T01:17:05.124Z,97.04
2018-05-23T01:18:13.764Z,97.9
2018-05-23T01:19:22.419Z,96.84
2018-05-23T01:20:31.057Z,96.66
2018-05-23T01:21:39.974Z,96.56
2018-05-23T01:22:48.613Z,96.47
2018-05-23T01:23:57.261Z,97.18
2018-05-23T01:25:05.911Z,96.66
2018-05-23T01:26:14.561Z,96.56
2018-05-23T01:27:23.210Z,96.75
2018-05-23T01:28:31.845Z,96.66
2018-05-23T01:29:40.500Z,96.47
2018-05-23T01:30:49.141Z,96.84
2018-05-23T01:31:57.796Z,97.04
2018-05-23T01:33:06.437Z,97.23
2018-05-23T01:34:15.089Z,97.42
2018-05-23T01:35:23.730Z,97.23
2018-05-23T01:36:32.654Z,97.9
2018-05-23T01:37:41.292Z,98.28
2018-05-23T01:38:49.941Z,98.38
2018-05-23T01:39:58.861Z,98.1
2018-05-23T01:41:07.783Z,97.9
2018-05-23T01:42:16.429Z,98.38
2018-05-23T01:43:25.078Z,97.52
2018-05-23T01:44:33.726Z,97.8
2018-05-23T01:45:42.368Z,97.42
2018-05-23T01:46:51.023Z,97.33
2018-05-23T01:47:59.666Z,97.52
2018-05-23T01:49:08.319Z,97.42
2018-05-23T01:50:16.954Z,97.33
2018-05-23T01:51:25.608Z,97.23
2018-05-23T01:52:34.251Z,97.23
2018-05-23T01:53:42.901Z,97.23
2018-05-23T01:54:51.553Z,97.52
2018-05-23T01:56:00.192Z,97.42
2018-05-23T01:57:08.843Z,98.1
2018-05-23T01:58:17.487Z,97.23
2018-05-23T01:59:26.147Z,97.52
2018-05-23T02:00:34.792Z,97.71
2018-05-23T02:01:43.434Z,97.52
2018-05-23T02:02:52.084Z,97.23
2018-05-23T02:04:00.724Z,98.19
2018-05-23T02:05:09.646Z,98.28
2018-05-23T02:06:18.294Z,98.19
2018-05-23T02:07:26.945Z,98.57
2018-05-23T02:08:35.583Z,98.1
2018-05-23T02:09:44.238Z,98.1
2018-05-23T02:10:52.880Z,98.38
2018-05-23T02:12:01.797Z,98.38
2018-05-23T02:13:10.433Z,98.1
2018-05-23T02:14:19.351Z,97.9
2018-05-23T02:15:27.994Z,97.9
2018-05-23T02:16:36.643Z,98.86
2018-05-23T02:17:45.549Z,98.47
2018-05-23T02:18:54.197Z,98.19
2018-05-23T02:20:02.849Z,97.9
2018-05-23T02:21:11.503Z,97.9
2018-05-23T02:22:20.156Z,98.1
2018-05-23T02:23:28.791Z,98
2018-05-23T02:24:37.977Z,98.28
2018-05-23T02:25:46.619Z,98.57
2018-05-23T02:26:55.276Z,98.38
2018-05-23T02:28:04.175Z,98
2018-05-23T02:29:13.086Z,97.9
2018-05-23T02:30:21.989Z,98.19
2018-05-23T02:31:30.649Z,98.19
2018-05-23T02:32:39.554Z,99.05
2018-05-23T02:33:48.210Z,98.19
2018-05-23T02:34:57.395Z,98.28
2018-05-23T02:36:06.315Z,99.05
2018-05-23T02:37:14.993Z,98.86
2018-05-23T02:38:23.604Z,99.24
2018-05-23T02:39:32.251Z,98.86
2018-05-23T02:40:40.900Z,98.47
2018-05-23T02:41:49.560Z,98.67
2018-05-23T02:42:58.207Z,97.9
2018-05-23T02:44:06.858Z,98.1
2018-05-23T02:45:15.502Z,98.1
2018-05-23T02:46:24.433Z,98.1
2018-05-23T02:47:33.081Z,98.28
2018-05-23T02:48:41.729Z,98.19
2018-05-23T02:49:50.367Z,98.47
2018-05-23T02:50:59.300Z,98.76
2018-05-23T02:52:07.948Z,98.96
2018-05-23T02:53:16.874Z,99.15
2018-05-23T02:54:25.513Z,98.38
2018-05-23T02:55:34.166Z,98.86
2018-05-23T02:56:42.812Z,98.28
2018-05-23T02:57:51.461Z,98.19
2018-05-23T02:59:00.109Z,98.38
2018-05-23T03:00:09.013Z,99.05
2018-05-23T03:01:17.711Z,99.05
2018-05-23T03:02:26.604Z,98.96
2018-05-23T03:03:35.978Z,98.86
2018-05-23T03:04:44.774Z,98.05
2018-05-23T03:05:53.817Z,98.33
2018-05-23T03:07:02.615Z,98.43
2018-05-23T03:08:11.270Z,98.86
2018-05-23T03:09:19.902Z,98.86
2018-05-23T03:10:28.551Z,99.15
2018-05-23T03:11:37.462Z,98.96
2018-05-23T03:12:46.113Z,98.81
2018-05-23T03:13:55.021Z,98.96
2018-05-23T03:15:03.667Z,98.96
2018-05-23T03:16:12.310Z,98.62
2018-05-23T03:17:20.954Z,98.86
2018-05-23T03:18:29.611Z,98.96
2018-05-23T03:19:38.255Z,99
2018-05-23T03:20:46.902Z,98.76
2018-05-23T03:21:55.543Z,98.86
2018-05-23T03:23:04.192Z,99.05
2018-05-23T03:24:12.839Z,98.52
2018-05-23T03:25:21.489Z,98.81
2018-05-23T03:26:30.132Z,98.86
2018-05-23T03:27:39.054Z,98.52
2018-05-23T03:28:47.698Z,98.86
2018-05-23T03:29:56.346Z,98.81
2018-05-23T03:31:04.995Z,99.05
2018-05-23T03:32:13.660Z,98.81
2018-05-23T03:33:22.578Z,99
2018-05-23T03:34:31.224Z,98.81
2018-05-23T03:35:39.874Z,98
2018-05-23T03:36:48.517Z,98.24
2018-05-23T03:37:57.160Z,98.86
2018-05-23T03:39:05.805Z,98.19
2018-05-23T03:40:14.456Z,98.28
2018-05-23T03:41:23.097Z,98.38
2018-05-23T03:42:31.753Z,98.67
2018-05-23T03:43:40.389Z,99.15
2018-05-23T03:44:49.301Z,98.86
2018-05-23T03:45:58.237Z,99.53
2018-05-23T03:47:06.959Z,99.72
2018-05-23T03:48:15.872Z,99.82
2018-05-23T03:49:24.520Z,98.81
2018-05-23T03:50:33.166Z,98.57
2018-05-23T03:51:42.074Z,98.76
2018-05-23T03:52:50.716Z,99
2018-05-23T03:53:59.362Z,99.1
2018-05-23T03:55:08.016Z,98.86
2018-05-23T03:56:16.985Z,98.86
2018-05-23T03:57:25.898Z,99.05
2018-05-23T03:58:34.539Z,99.05
2018-05-23T03:59:43.192Z,99.05
2018-05-23T04:00:51.831Z,98.86
2018-05-23T04:02:00.490Z,98.81
2018-05-23T04:03:09.126Z,98.62
2018-05-23T04:04:17.782Z,98.67
2018-05-23T04:05:26.428Z,98.91
2018-05-23T04:06:35.078Z,98.57
2018-05-23T04:07:43.981Z,99.05
2018-05-23T04:08:52.627Z,98.76
2018-05-23T04:10:01.278Z,98.81
2018-05-23T04:11:09.929Z,98.81
2018-05-23T04:12:18.574Z,98.14
2018-05-23T04:13:27.213Z,98
2018-05-23T04:14:35.863Z,98.38
2018-05-23T04:15:44.506Z,98.19
2018-05-23T04:16:53.161Z,98.19
2018-05-23T04:18:02.330Z,98.19
2018-05-23T04:19:10.980Z,98.86
2018-05-23T04:20:19.627Z,98.86
2018-05-23T04:21:28.545Z,98.96
2018-05-23T04:22:37.183Z,98.76
2018-05-23T04:23:45.832Z,99.05
2018-05-23T04:24:54.487Z,99.05
2018-05-23T04:26:03.609Z,98.96
2018-05-23T04:27:12.257Z,98.19
2018-05-23T04:28:21.171Z,98.47
2018-05-23T04:29:29.819Z,98.57
2018-05-23T04:30:38.466Z,98.57
2018-05-23T04:31:47.385Z,98.38
2018-05-23T04:32:56.294Z,98.19
2018-05-23T04:34:04.943Z,98.28
2018-05-23T04:35:13.580Z,98.38
2018-05-23T04:36:22.232Z,98.57
2018-05-23T04:37:30.872Z,98.28
2018-05-23T04:38:39.525Z,98.1
2018-05-23T04:39:48.164Z,98.1
2018-05-23T04:40:56.820Z,99.05
2018-05-23T04:42:05.465Z,99.15
2018-05-23T04:43:14.112Z,99.05
2018-05-23T04:44:22.753Z,98.76
2018-05-23T04:45:31.400Z,98
2018-05-23T04:46:40.051Z,98.47
2018-05-23T04:47:48.699Z,98.57
2018-05-23T04:48:57.348Z,98.19
2018-05-23T04:50:05.984Z,98.47
2018-05-23T04:51:14.632Z,98.57
2018-05-23T04:52:23.282Z,98
2018-05-23T04:53:31.934Z,98.38
2018-05-23T04:54:40.576Z,98.28
2018-05-23T04:55:49.223Z,98.28
2018-05-23T04:56:57.871Z,98.38
2018-05-23T04:58:06.523Z,98.19
2018-05-23T04:59:15.172Z,98.33
2018-05-23T05:00:23.822Z,98.96
2018-05-23T05:01:32.468Z,98.1
2018-05-23T05:02:41.111Z,98.91
2018-05-23T05:03:49.756Z,98.52
2018-05-23T05:04:58.403Z,98.19
2018-05-23T05:06:07.048Z,98.81
2018-05-23T05:07:15.694Z,98.05
2018-05-23T05:08:24.604Z,98.14
2018-05-23T05:09:33.290Z,98.24
2018-05-23T05:10:41.898Z,98.14
2018-05-23T05:11:50.809Z,98.43
2018-05-23T05:12:59.460Z,97.85
2018-05-23T05:14:08.120Z,97.66
2018-05-23T05:15:17.021Z,97.47
2018-05-23T05:16:25.663Z,97.85
2018-05-23T05:17:34.316Z,97.38
2018-05-23T05:18:42.961Z,97.28
2018-05-23T05:19:51.616Z,96.99
2018-05-23T05:21:00.252Z,96.42
2018-05-23T05:22:08.902Z,97.04
2018-05-23T05:23:17.812Z,96.75
2018-05-23T05:24:26.461Z,96.75
2018-05-23T05:25:35.109Z,96.75
2018-05-23T05:26:43.752Z,96.56
2018-05-23T05:27:52.671Z,96.37
2018-05-23T05:29:01.315Z,96.18
2018-05-23T05:30:10.230Z,96.56
2018-05-23T05:31:18.873Z,96.37
2018-05-23T05:32:27.518Z,96.47
2018-05-23T05:33:36.427Z,96.37
2018-05-23T05:34:45.089Z,96.37
2018-05-23T05:35:53.728Z,96.18
2018-05-23T05:37:02.379Z,96.27
2018-05-23T05:38:11.025Z,96.66
2018-05-23T05:39:19.676Z,96.75
2018-05-23T05:40:28.319Z,96.18
2018-05-23T05:41:36.968Z,95.79
2018-05-23T05:42:45.624Z,95.98
2018-05-23T05:43:54.362Z,96.08
2018-05-23T05:45:03.370Z,95.75
2018-05-23T05:46:12.022Z,94.79
2018-05-23T05:47:20.933Z,94.69
2018-05-23T05:48:29.848Z,94.59
2018-05-23T05:49:38.496Z,94.88
2018-05-23T05:50:47.408Z,94.12
2018-05-23T05:51:56.057Z,94.12
2018-05-23T05:53:04.712Z,94.49
2018-05-23T05:54:13.359Z,94.21
2018-05-23T05:55:22.006Z,93.63
2018-05-23T05:56:30.651Z,93.1
2018-05-23T05:57:39.305Z,93.25
2018-05-23T05:58:47.951Z,93.15
2018-05-23T05:59:56.604Z,93.01
2018-05-23T06:01:05.255Z,92.91
2018-05-23T06:02:14.427Z,92.91
2018-05-23T06:03:23.079Z,92.14
2018-05-23T06:04:31.726Z,91.76
2018-05-23T06:05:40.374Z,92.53
2018-05-23T06:06:49.016Z,91.96
2018-05-23T06:07:57.676Z,91.47
2018-05-23T06:09:06.325Z,91.57
2018-05-23T06:10:14.970Z,88.79
2018-05-23T06:11:23.620Z,88.49
2018-05-23T06:12:32.536Z,87.15
2018-05-23T06:13:41.182Z,85.81
2018-05-23T06:14:49.833Z,85.62
2018-05-23T06:15:58.742Z,87.44
2018-05-23T06:17:07.389Z,87.96
2018-05-23T06:18:16.038Z,88.93
2018-05-23T06:19:24.952Z,88.64
2018-05-23T06:20:33.604Z,88.93
2018-05-23T06:21:42.253Z,88.93
2018-05-23T06:22:51.165Z,87.87
2018-05-23T06:23:59.814Z,87.77
2018-05-23T06:25:08.515Z,87.34
2018-05-23T06:26:17.110Z,86.81
2018-05-23T06:27:25.758Z,88.2
2018-05-23T06:28:34.408Z,88.59
2018-05-23T06:29:43.063Z,88.01
2018-05-23T06:30:51.708Z,88.39
2018-05-23T06:32:00.357Z,87.72
2018-05-23T06:33:09.002Z,87.34
2018-05-23T06:34:17.661Z,83.97
2018-05-23T06:35:26.308Z,84.94
2018-05-23T06:36:34.952Z,82.73
2018-05-23T06:37:43.692Z,82.63
2018-05-23T06:38:52.248Z,81.48
2018-05-23T06:40:00.904Z,83.2
2018-05-23T06:41:09.551Z,84.26
2018-05-23T06:42:18.201Z,84.94
2018-05-23T06:43:27.205Z,86.04
2018-05-23T06:44:36.153Z,86.32
2018-05-23T06:45:44.803Z,85.36
2018-05-23T06:46:53.451Z,84.4
2018-05-23T06:48:02.115Z,83.83
2018-05-23T06:49:11.040Z,81.99
2018-05-23T06:50:19.685Z,80.17
2018-05-23T06:51:28.341Z,81.42
2018-05-23T06:52:36.981Z,82.19
2018-05-23T06:53:45.633Z,82.14
2018-05-23T06:54:54.284Z,80.69
2018-05-23T06:56:03.206Z,78.48
2018-05-23T06:57:11.862Z,78.48
2018-05-23T06:58:20.762Z,79.05
2018-05-23T06:59:29.420Z,80.4
2018-05-23T07:00:38.066Z,81.65
2018-05-23T07:01:46.725Z,82.14
2018-05-23T07:02:55.369Z,81.37
2018-05-23T07:04:04.025Z,81.17
2018-05-23T07:05:12.670Z,81.94
2018-05-23T07:06:21.331Z,80.79
2018-05-23T07:07:29.969Z,81.27
2018-05-23T07:08:38.627Z,80.02
2018-05-23T07:09:47.276Z,77.9
2018-05-23T07:10:55.934Z,78.19
2018-05-23T07:12:04.856Z,79.1
2018-05-23T07:13:13.770Z,78.19
2018-05-23T07:14:22.414Z,76.98
2018-05-23T07:15:31.141Z,76.88
2018-05-23T07:16:39.726Z,77.04
2018-05-23T07:17:48.724Z,76.65
2018-05-23T07:18:57.290Z,77.13
2018-05-23T07:20:06.195Z,79.15
2018-05-23T07:21:14.854Z,81.27
2018-05-23T07:22:23.499Z,82.17
2018-05-23T07:23:32.159Z,78.52
2018-05-23T07:24:40.795Z,76.5
2018-05-23T07:25:49.467Z,76.88
2018-05-23T07:26:58.104Z,76.69
2018-05-23T07:28:06.754Z,76.21
2018-05-23T07:29:15.398Z,77.26
2018-05-23T07:30:24.049Z,77.94
2018-05-23T07:31:32.704Z,77.4
2018-05-23T07:32:41.357Z,76.63
2018-05-23T07:33:50.011Z,78.56
2018-05-23T07:34:58.653Z,77.69
2018-05-23T07:36:07.309Z,77.88
2018-05-23T07:37:15.956Z,77.59
2018-05-23T07:38:24.929Z,76.57
2018-05-23T07:39:33.559Z,75.13
2018-05-23T07:40:42.215Z,74.74
2018-05-23T07:41:50.873Z,74.36
2018-05-23T07:42:59.526Z,74.36
2018-05-23T07:44:08.164Z,72.33
2018-05-23T07:45:17.158Z,71.66
2018-05-23T07:46:25.744Z,71.08
2018-05-23T07:47:34.387Z,71.66
2018-05-23T07:48:43.043Z,71.47
2018-05-23T07:49:51.702Z,70.64
2018-05-23T07:51:00.353Z,71.7
2018-05-23T07:52:09.012Z,72.18
2018-05-23T07:53:17.917Z,72.18
2018-05-23T07:54:26.574Z,72.66
2018-05-23T07:55:35.224Z,72.37
2018-05-23T07:56:44.173Z,74.01
2018-05-23T07:57:52.804Z,74.68
2018-05-23T07:59:01.455Z,72.31
2018-05-23T08:00:10.111Z,71.64
2018-05-23T08:01:18.762Z,71.64
2018-05-23T08:02:27.409Z,73.18
2018-05-23T08:03:36.062Z,71.34
2018-05-23T08:04:44.710Z,69.61
2018-05-23T08:05:53.369Z,70.76
2018-05-23T08:07:02.020Z,71.83
2018-05-23T08:08:10.670Z,71.15
2018-05-23T08:09:19.320Z,71.73
2018-05-23T08:10:27.970Z,68.93
2018-05-23T08:11:36.626Z,68.93
2018-05-23T08:12:45.549Z,71.15
2018-05-23T08:13:54.466Z,70
2018-05-23T08:15:03.112Z,70.09
2018-05-23T08:16:11.771Z,70.86
2018-05-23T08:17:20.424Z,70.19
2018-05-23T08:18:29.073Z,68.87
2018-05-23T08:19:37.720Z,69.93
2018-05-23T08:20:46.376Z,69.35
2018-05-23T08:21:55.027Z,70.32
2018-05-23T08:23:03.682Z,70.51
2018-05-23T08:24:12.333Z,69.93
2018-05-23T08:25:20.989Z,70.8
2018-05-23T08:26:29.641Z,69.84
2018-05-23T08:27:38.295Z,68.01
2018-05-23T08:28:46.946Z,68.49
2018-05-23T08:29:55.593Z,69.16
2018-05-23T08:31:04.245Z,69.74
2018-05-23T08:32:12.898Z,67.91
2018-05-23T08:33:21.561Z,66.27
2018-05-23T08:34:30.205Z,67.14
2018-05-23T08:35:38.858Z,66.08
2018-05-23T08:36:47.512Z,67.04
2018-05-23T08:37:56.159Z,67.33
2018-05-23T08:39:04.808Z,67.71
2018-05-23T08:40:13.463Z,68.35
2018-05-23T08:41:22.111Z,68.55
2018-05-23T08:42:30.768Z,68.07
2018-05-23T08:43:39.418Z,67.91
2018-05-23T08:44:48.068Z,68.1
2018-05-23T08:45:56.805Z,68.19
2018-05-23T08:47:05.839Z,68.29
2018-05-23T08:48:14.763Z,68.68
2018-05-23T08:49:23.413Z,68.01
2018-05-23T08:50:32.068Z,67.23
2018-05-23T08:51:40.714Z,66.66
2018-05-23T08:52:49.375Z,67.43
2018-05-23T08:53:58.023Z,67.23
2018-05-23T08:55:06.679Z,67.04
2018-05-23T08:56:15.322Z,66.75
2018-05-23T08:57:24.254Z,67.46
2018-05-23T08:58:32.903Z,65.4
2018-05-23T08:59:41.560Z,67.07
2018-05-23T09:00:50.203Z,64.95
2018-05-23T09:01:58.916Z,64.66
2018-05-23T09:03:07.578Z,65.63
2018-05-23T09:04:16.490Z,63.7
2018-05-23T09:05:25.152Z,63.31
2018-05-23T09:06:33.788Z,63.5
2018-05-23T09:07:42.445Z,64.56
2018-05-23T09:08:51.091Z,64.86
2018-05-23T09:09:59.752Z,65.56
2018-05-23T09:11:08.395Z,64.11
2018-05-23T09:12:17.132Z,62.86
2018-05-23T09:13:25.699Z,62.95
2018-05-23T09:14:34.359Z,64.5
2018-05-23T09:15:43.003Z,64.98
2018-05-23T09:16:51.657Z,64.11
2018-05-23T09:18:00.315Z,63.43
2018-05-23T09:19:08.969Z,61.7
2018-05-23T09:20:17.619Z,62.37
2018-05-23T09:21:26.268Z,63.82
2018-05-23T09:22:34.919Z,64.21
2018-05-23T09:23:43.570Z,62.7
2018-05-23T09:24:52.231Z,61.92
2018-05-23T09:26:01.145Z,62.21
2018-05-23T09:27:10.065Z,61.73
2018-05-23T09:28:18.709Z,60.86
2018-05-23T09:29:27.369Z,59.8
2018-05-23T09:30:36.018Z,60.5
2018-05-23T09:31:44.675Z,60.79
2018-05-23T09:32:53.321Z,58.09
2018-05-23T09:34:02.310Z,57.51
2018-05-23T09:35:10.898Z,57.99
2018-05-23T09:36:19.552Z,59.25
2018-05-23T09:37:28.196Z,57.6
2018-05-23T09:38:36.851Z,57.99
2018-05-23T09:39:45.507Z,57.96
2018-05-23T09:40:54.162Z,58.54
2018-05-23T09:42:02.820Z,60.69
2018-05-23T09:43:11.461Z,61.66
2018-05-23T09:44:20.117Z,61.76
2018-05-23T09:45:28.773Z,61.27
2018-05-23T09:46:37.420Z,58.21
2018-05-23T09:47:46.080Z,58.12
2018-05-23T09:48:54.727Z,58.8
2018-05-23T09:50:03.386Z,58.04
2018-05-23T09:51:12.029Z,58.14
2018-05-23T09:52:20.691Z,56.88
2018-05-23T09:53:29.614Z,56.6
2018-05-23T09:54:38.270Z,57.56
2018-05-23T09:55:46.912Z,55.63
2018-05-23T09:56:55.834Z,53.79
2018-05-23T09:58:04.488Z,54.47
2018-05-23T09:59:13.141Z,54.57
2018-05-23T10:00:21.801Z,54.75
2018-05-23T10:01:30.472Z,55.05
2018-05-23T10:02:39.111Z,55.15
2018-05-23T10:03:48.020Z,54.75
2018-05-23T10:04:56.951Z,55.05
2018-05-23T10:06:05.595Z,55.43
2018-05-23T10:07:14.255Z,56.7
2018-05-23T10:08:22.903Z,56.5
2018-05-23T10:09:31.567Z,56.6
2018-05-23T10:10:40.481Z,55.63
2018-05-23T10:11:50.645Z,54.47
2018-05-23T10:12:59.580Z,53.89
2018-05-23T10:14:08.251Z,53.91
2018-05-23T10:15:17.166Z,54.57
2018-05-23T10:16:25.813Z,54.59
2018-05-23T10:17:34.464Z,55.85
2018-05-23T10:18:43.114Z,55.07
2018-05-23T10:19:51.777Z,53.81
2018-05-23T10:21:00.422Z,54.01
2018-05-23T10:22:09.077Z,54.98
2018-05-23T10:23:17.722Z,55.27
2018-05-23T10:24:26.475Z,54.49
2018-05-23T10:25:35.701Z,54.59
2018-05-23T10:26:44.518Z,54.3
2018-05-23T10:27:53.645Z,55.36
2018-05-23T10:29:02.478Z,55.66
2018-05-23T10:30:11.496Z,55.76
2018-05-23T10:31:20.153Z,55.56
2018-05-23T10:32:28.797Z,54.03
2018-05-23T10:33:37.455Z,54.62
2018-05-23T10:34:46.466Z,53.55
2018-05-23T10:35:55.632Z,53.94
2018-05-23T10:37:04.476Z,55.17
2018-05-23T10:38:13.121Z,54.33
2018-05-23T10:39:21.778Z,54.43
2018-05-23T10:40:30.428Z,54.33
2018-05-23T10:41:39.095Z,54.23
2018-05-23T10:42:47.742Z,54.62
2018-05-23T10:43:56.397Z,52.87
2018-05-23T10:45:05.575Z,53.55
2018-05-23T10:46:14.263Z,53.85
2018-05-23T10:47:22.882Z,52.39
2018-05-23T10:48:31.538Z,53.55
2018-05-23T10:49:40.458Z,53.85
2018-05-23T10:50:49.121Z,53.55
2018-05-23T10:51:57.771Z,52.87
2018-05-23T10:53:06.770Z,53.65
2018-05-23T10:54:15.422Z,54.01
2018-05-23T10:55:24.080Z,54.79
2018-05-23T10:56:32.739Z,53.53
2018-05-23T10:57:41.392Z,53.91
2018-05-23T10:58:50.046Z,54.01
2018-05-23T10:59:58.696Z,55.17
2018-05-23T11:01:07.355Z,55.46
2018-05-23T11:02:16.013Z,55.92
2018-05-23T11:03:24.666Z,55.92
2018-05-23T11:04:33.315Z,55.53
2018-05-23T11:05:42.023Z,55.73
2018-05-23T11:06:50.626Z,56.7
2018-05-23T11:07:59.281Z,56.3
2018-05-23T11:09:07.932Z,56.3
2018-05-23T11:10:16.584Z,56.3
2018-05-23T11:11:25.237Z,56.88
2018-05-23T11:12:33.892Z,56.3
2018-05-23T11:13:42.547Z,56.98
2018-05-23T11:14:51.203Z,56.92
2018-05-23T11:16:00.419Z,56.92
2018-05-23T11:17:09.073Z,55.36
2018-05-23T11:18:17.732Z,55.85
2018-05-23T11:19:26.381Z,57.01
2018-05-23T11:20:35.035Z,58.17
2018-05-23T11:21:43.694Z,58.11
2018-05-23T11:22:52.349Z,58.11
2018-05-23T11:24:01.267Z,58.3
2018-05-23T11:25:09.925Z,57.23
2018-05-23T11:26:18.572Z,56.26
2018-05-23T11:27:27.230Z,56.16
2018-05-23T11:28:35.885Z,55.4
2018-05-23T11:29:44.564Z,55.49
2018-05-23T11:30:53.193Z,54.71
2018-05-23T11:32:01.849Z,54.13
2018-05-23T11:33:10.505Z,55.4
2018-05-23T11:34:19.160Z,55.4
2018-05-23T11:35:27.818Z,56.36
2018-05-23T11:36:36.467Z,56.36
2018-05-23T11:37:45.452Z,54.94
2018-05-23T11:38:54.106Z,55.78
2018-05-23T11:40:03.027Z,55.98
2018-05-23T11:41:11.673Z,55.78
2018-05-23T11:42:20.336Z,55.68
2018-05-23T11:43:28.987Z,55.58
2018-05-23T11:44:37.644Z,55.98
2018-05-23T11:45:46.287Z,55.81
2018-05-23T11:46:54.944Z,56.1
2018-05-23T11:48:03.605Z,55.81
2018-05-23T11:49:12.262Z,58.14
2018-05-23T11:50:20.926Z,56.68
2018-05-23T11:51:29.562Z,56
2018-05-23T11:52:38.223Z,55.71
2018-05-23T11:53:46.872Z,55.81
2018-05-23T11:54:55.534Z,55.52
2018-05-23T11:56:04.179Z,54.26
2018-05-23T11:57:12.835Z,54.55
2018-05-23T11:58:21.486Z,55.22
2018-05-23T11:59:30.147Z,54.55
2018-05-23T12:00:38.792Z,55.71
2018-05-23T12:01:47.462Z,55.52
2018-05-23T12:02:56.389Z,54.26
2018-05-23T12:04:05.053Z,54.64
2018-05-23T12:05:13.705Z,55.49
2018-05-23T12:06:22.356Z,55.62
2018-05-23T12:07:31.006Z,56.16
2018-05-23T12:08:39.663Z,55.42
2018-05-23T12:09:48.326Z,54.45
2018-05-23T12:10:56.980Z,55.58
2018-05-23T12:12:05.907Z,56
2018-05-23T12:13:14.550Z,55.88
2018-05-23T12:14:23.215Z,55.9
2018-05-23T12:15:31.872Z,56.39
2018-05-23T12:16:40.530Z,55.9
2018-05-23T12:17:49.175Z,56.1
2018-05-23T12:18:58.107Z,55.81
2018-05-23T12:20:07.021Z,55.52
2018-05-23T12:21:15.676Z,55.32
2018-05-23T12:22:24.327Z,54.62
2018-05-23T12:23:32.984Z,54.62
2018-05-23T12:24:41.642Z,54.33
2018-05-23T12:25:50.297Z,54.81
2018-05-23T12:26:58.957Z,54.03
2018-05-23T12:28:07.875Z,54.62
2018-05-23T12:29:16.530Z,55.4
2018-05-23T12:30:25.175Z,55.58
2018-05-23T12:31:33.839Z,55.78
2018-05-23T12:32:42.483Z,55.1
2018-05-23T12:33:51.142Z,54.03
2018-05-23T12:34:59.793Z,54.52
2018-05-23T12:36:08.727Z,54.79
2018-05-23T12:37:17.374Z,54.98
2018-05-23T12:38:26.029Z,55.56
2018-05-23T12:39:34.689Z,54.59
2018-05-23T12:40:43.338Z,54.39
2018-05-23T12:41:52.346Z,53.89
2018-05-23T12:43:01.264Z,54.37
2018-05-23T12:44:09.915Z,54.37
2018-05-23T12:45:18.567Z,54.95
2018-05-23T12:46:27.229Z,54.47
2018-05-23T12:47:35.890Z,54.37
2018-05-23T12:48:44.603Z,55.05
2018-05-23T12:49:53.197Z,55.53
2018-05-23T12:51:01.855Z,53.21
2018-05-23T12:52:10.510Z,53.99
2018-05-23T12:53:19.165Z,54.08
2018-05-23T12:54:28.077Z,53.99
2018-05-23T12:55:36.740Z,54.57
2018-05-23T12:56:45.396Z,55.43
2018-05-23T12:57:54.323Z,53.04
2018-05-23T12:59:03.236Z,53.23
2018-05-23T13:00:11.889Z,53.43
2018-05-23T13:01:20.544Z,54.11
2018-05-23T13:02:29.203Z,53.72
2018-05-23T13:03:37.860Z,54.21
2018-05-23T13:04:46.510Z,54.11
2018-05-23T13:05:55.163Z,53.72
2018-05-23T13:07:03.829Z,53.04
2018-05-23T13:08:12.758Z,53.23
2018-05-23T13:09:21.400Z,53.04
2018-05-23T13:10:30.053Z,51.59
2018-05-23T13:11:38.973Z,51.59
2018-05-23T13:12:47.640Z,51.2
2018-05-23T13:13:56.822Z,51.1
2018-05-23T13:15:05.478Z,51.28
2018-05-23T13:16:14.131Z,52.36
2018-05-23T13:17:23.058Z,52.85
2018-05-23T13:18:31.714Z,52.27
2018-05-23T13:19:40.360Z,52.46
2018-05-23T13:20:49.011Z,53.33
2018-05-23T13:21:57.664Z,53.26
2018-05-23T13:23:06.325Z,51.62
2018-05-23T13:24:14.979Z,51.13
2018-05-23T13:25:23.633Z,52.29
2018-05-23T13:26:32.281Z,52.49
2018-05-23T13:27:40.939Z,51.23
2018-05-23T13:28:49.600Z,50.74
2018-05-23T13:29:58.253Z,50.55
2018-05-23T13:31:06.902Z,51.23
2018-05-23T13:32:15.562Z,51.81
2018-05-23T13:33:24.212Z,52.29
2018-05-23T13:34:32.866Z,52.29
2018-05-23T13:35:41.516Z,52.29
2018-05-23T13:36:50.460Z,50.96
2018-05-23T13:37:59.115Z,51.62
2018-05-23T13:39:08.036Z,52.42
2018-05-23T13:40:16.688Z,50.09
2018-05-23T13:41:25.347Z,48.93
2018-05-23T13:42:34.002Z,49.61
2018-05-23T13:43:42.655Z,50.48
2018-05-23T13:44:51.305Z,50.19
2018-05-23T13:45:59.963Z,49.9
2018-05-23T13:47:08.618Z,49.61
2018-05-23T13:48:17.275Z,50.29
2018-05-23T13:49:26.187Z,50.96
2018-05-23T13:50:34.846Z,50.31
2018-05-23T13:51:43.499Z,49.22
2018-05-23T13:52:52.157Z,50.31
2018-05-23T13:54:01.069Z,48.64
2018-05-23T13:55:09.796Z,48.93
2018-05-23T13:56:18.688Z,48.64
2018-05-23T13:57:27.615Z,48.25
2018-05-23T13:58:36.534Z,48.54
2018-05-23T13:59:45.184Z,49
2018-05-23T14:00:54.105Z,49.39
2018-05-23T14:02:02.757Z,49.41
2018-05-23T14:03:11.414Z,49.51
2018-05-23T14:04:20.063Z,49.32
2018-05-23T14:05:28.719Z,47.38
2018-05-23T14:06:37.374Z,48.44
2018-05-23T14:07:46.033Z,49.32
2018-05-23T14:08:54.946Z,48.35
2018-05-23T14:10:03.871Z,48.44
2018-05-23T14:11:12.526Z,48.66
2018-05-23T14:12:21.195Z,48.47
2018-05-23T14:13:30.116Z,48.95
2018-05-23T14:14:38.777Z,50.12
2018-05-23T14:15:47.690Z,47.72
2018-05-23T14:16:56.343Z,46.24
2018-05-23T14:18:05.002Z,48.57
2018-05-23T14:19:14.028Z,47.3
2018-05-23T14:20:23.083Z,47.67
2018-05-23T14:21:34.455Z,47.86
2018-05-23T14:22:43.049Z,49.02
2018-05-23T14:23:51.702Z,47.77
2018-05-23T14:25:00.363Z,47.86
2018-05-23T14:26:09.006Z,48.35
2018-05-23T14:27:17.666Z,48.83
2018-05-23T14:28:26.362Z,47.86
2018-05-23T14:29:34.974Z,48.35
2018-05-23T14:30:43.886Z,48.93
2018-05-23T14:31:52.808Z,49.8
2018-05-23T14:33:01.459Z,49.12
2018-05-23T14:34:10.118Z,48.83
2018-05-23T14:35:19.033Z,51.64
2018-05-23T14:36:27.682Z,52.97
2018-05-23T14:37:36.345Z,48.42
2018-05-23T14:38:45.252Z,48.22
2018-05-23T14:39:53.917Z,49.77
2018-05-23T14:41:02.562Z,53.23
2018-05-23T14:42:11.221Z,50.26
2018-05-23T14:43:20.137Z,49.56
2018-05-23T14:44:28.796Z,48.39
2018-05-23T14:45:37.442Z,47.43
2018-05-23T14:46:46.096Z,48.11
2018-05-23T14:47:54.742Z,47.72
2018-05-23T14:49:03.407Z,48.39